Columbus, GA (31999)

8:37 AM EDT on August 31, 2015 (GMT -0400)
Hilton Heights- Lynda Lane | | Change Station
CLOSE
Current Station
Personal Weather Station
Location: Columbus, GA
Elevation: 387 ft
Nearby Weather Stations

Elev 387 ft 32.49 °N, 84.95 °W | Updated 20 seconds ago

Mostly Cloudy
Mostly Cloudy
75.2 °F
Feels Like 74 °F
N
1.1
Wind Variable Wind from ESE
Gusts 2.5 mph

Today
High -- | Low -- °F
--% Chance of Precip.
Yesterday
High -- | Low -- °F
Precip. -- in
7:14 AM 8:05 PM
Waning Gibbous, 95% visible
Pressure 30.08 in
Visibility 10.0 miles
Clouds Mostly Cloudy 800 ft
Heat Index 74 °F
Dew Point 73 °F
Humidity 93%
Rainfall in
Snow Depth Not available.
UV 1.0 out of 12
Pollen 8.40 out of 12
Air Quality Not available.
Flu Activity Not available.
METAR KCSG 311214Z AUTO 09006KT 10SM BKN008 23/21 A3008 RMK AO2 CIG 006V010 TSNO
Pressure 30.08 in
Visibility 10.0 miles
Clouds Mostly Cloudy 800 ft
Heat Index 74 °F
Dew Point 73 °F
Humidity 93%
Rainfall in
Snow Depth Not available.
UV 1.0 out of 12
Pollen 8.40 out of 12
Air Quality Not available.
Flu Activity Not available.
METAR KCSG 311214Z AUTO 09006KT 10SM BKN008 23/21 A3008 RMK AO2 CIG 006V010 TSNO

10-Day Weather Forecast

×

Almanac

Astronomy

Aug. 31, 2015 Rise Set
Actual Time
Civil Twilight
Nautical Twilight
Astronomical Twilight
Moon
Length of Visible Light
Length of Day
Tomorrow will be .
, % of the Moon is Illuminated

Today's Extremes

State Highs State Lows

Community

WunderPhotos

Upload Photos

1,851,222 photos uploaded!

WunderBlogs® & News

Nearby

Air Quality

  Air Quality AQ Index Pollutant
Not available.

Snow Depth

Station Depth Elevation

Earthquake Activity

City Distance Mag. Time & Date
Minimum magnitude displayed is 2.5.

Coastal Water Temperatures

Place Temperature

Stations

Nearby Weather Stations

Station Location Temp. Windchill Dew Point Humidity Wind Precip. Elev Updated Type